createdAt,value
2019-02-24T00:01:59.842Z,63.20
2019-02-24T00:04:28.846Z,63.50
2019-02-24T00:06:57.813Z,63.60
2019-02-24T00:09:26.871Z,64.00
2019-02-24T00:11:55.838Z,64.10
2019-02-24T00:14:24.786Z,64.20
2019-02-24T00:16:53.759Z,64.40
2019-02-24T00:19:22.709Z,64.70
2019-02-24T00:21:51.698Z,64.70
2019-02-24T00:24:20.705Z,65.50
2019-02-24T00:26:49.743Z,64.60
2019-02-24T00:29:18.697Z,64.30
2019-02-24T00:31:47.666Z,64.20
2019-02-24T00:34:16.604Z,64.00
2019-02-24T00:36:45.566Z,63.80
2019-02-24T00:39:14.487Z,63.60
2019-02-24T00:41:44.009Z,63.40
2019-02-24T00:44:12.956Z,63.40
2019-02-24T00:46:41.921Z,63.00
2019-02-24T00:49:10.958Z,62.80
2019-02-24T00:51:39.902Z,62.30
2019-02-24T00:54:08.939Z,62.30
2019-02-24T00:56:37.896Z,62.30
2019-02-24T00:59:06.861Z,62.10
2019-02-24T01:01:35.801Z,61.80
2019-02-24T01:04:04.848Z,61.70
2019-02-24T01:06:33.785Z,61.90
2019-02-24T01:09:02.764Z,62.10
2019-02-24T01:11:31.717Z,61.90
2019-02-24T01:14:00.670Z,62.20
2019-02-24T01:16:29.628Z,62.10
2019-02-24T01:18:58.590Z,62.10
2019-02-24T01:21:27.534Z,62.20
2019-02-24T01:23:56.536Z,62.20
2019-02-24T01:26:25.552Z,62.40
2019-02-24T01:28:54.516Z,62.20
2019-02-24T01:31:23.455Z,62.00
2019-02-24T01:33:52.420Z,61.90
2019-02-24T01:36:21.442Z,62.00
2019-02-24T01:38:50.404Z,62.20
2019-02-24T01:41:19.336Z,62.50
2019-02-24T01:43:48.314Z,62.70
2019-02-24T01:46:17.242Z,63.40
2019-02-24T01:48:46.204Z,64.00
2019-02-24T01:51:15.223Z,64.20
2019-02-24T01:53:44.198Z,64.40
2019-02-24T01:56:13.132Z,64.70
2019-02-24T01:58:42.127Z,65.20
2019-02-24T02:01:11.107Z,65.70
2019-02-24T02:03:40.035Z,66.30
2019-02-24T02:06:09.013Z,68.10
2019-02-24T02:08:37.956Z,69.30
2019-02-24T02:11:06.923Z,69.40
2019-02-24T02:13:35.865Z,70.10
2019-02-24T02:16:04.907Z,70.30
2019-02-24T02:18:33.907Z,71.40
2019-02-24T02:21:02.902Z,72.80
2019-02-24T02:23:31.891Z,73.90
2019-02-24T02:26:00.855Z,74.20
2019-02-24T02:28:29.795Z,74.40
2019-02-24T02:30:58.767Z,74.90
2019-02-24T02:33:27.707Z,75.70
2019-02-24T02:35:57.513Z,76.10
2019-02-24T02:38:26.443Z,76.60
2019-02-24T02:40:55.413Z,76.50
2019-02-24T02:43:24.339Z,76.70
2019-02-24T02:45:53.315Z,76.70
2019-02-24T02:48:22.230Z,76.60
2019-02-24T02:50:51.204Z,76.30
2019-02-24T02:53:20.129Z,75.90
2019-02-24T02:55:49.113Z,75.70
2019-02-24T02:58:18.103Z,76.50
2019-02-24T03:00:47.154Z,76.80
2019-02-24T03:03:16.106Z,76.60
2019-02-24T03:05:46.744Z,76.20
2019-02-24T03:08:15.758Z,75.60
2019-02-24T03:10:44.697Z,74.80
2019-02-24T03:13:13.664Z,74.20
2019-02-24T03:15:42.599Z,73.80
2019-02-24T03:18:11.574Z,73.20
2019-02-24T03:20:40.531Z,72.50
2019-02-24T03:23:09.481Z,71.60
2019-02-24T03:25:38.421Z,71.00
2019-02-24T03:28:07.462Z,71.00
2019-02-24T03:30:36.420Z,70.60
2019-02-24T03:33:05.428Z,71.20
2019-02-24T03:35:34.369Z,73.70
2019-02-24T03:38:03.332Z,75.00
2019-02-24T03:40:32.357Z,75.50
2019-02-24T03:43:01.297Z,76.30
2019-02-24T03:45:30.226Z,76.60
2019-02-24T03:47:59.194Z,76.70
2019-02-24T03:50:28.119Z,77.60
2019-02-24T03:52:57.157Z,78.50
2019-02-24T03:55:26.230Z,77.60
2019-02-24T03:57:55.345Z,77.70
2019-02-24T04:00:24.343Z,77.80
2019-02-24T04:02:53.563Z,78.30
2019-02-24T04:05:22.627Z,78.40
2019-02-24T04:07:51.583Z,78.50
2019-02-24T04:10:20.536Z,78.60
2019-02-24T04:12:49.541Z,79.00
2019-02-24T04:15:18.514Z,80.70
2019-02-24T04:17:47.513Z,81.10
2019-02-24T04:20:16.465Z,81.20
2019-02-24T04:22:45.405Z,81.30
2019-02-24T04:25:14.375Z,81.60
2019-02-24T04:27:43.299Z,81.60
2019-02-24T04:30:12.288Z,81.90
2019-02-24T04:32:41.244Z,82.10
2019-02-24T04:35:10.254Z,81.70
2019-02-24T04:37:39.263Z,81.00
2019-02-24T04:40:08.409Z,80.90
2019-02-24T04:42:37.330Z,81.00
2019-02-24T04:45:06.462Z,81.50
2019-02-24T04:47:35.406Z,81.90
2019-02-24T04:50:05.390Z,82.00
2019-02-24T04:52:34.378Z,82.00
2019-02-24T04:55:03.464Z,82.40
2019-02-24T04:57:32.503Z,82.70
2019-02-24T05:00:01.439Z,82.30
2019-02-24T05:02:30.413Z,81.80
2019-02-24T05:04:59.389Z,82.10
2019-02-24T05:07:28.389Z,82.30
2019-02-24T05:09:57.334Z,82.60
2019-02-24T05:12:26.306Z,83.00
2019-02-24T05:14:55.244Z,83.20
2019-02-24T05:17:24.227Z,83.00
2019-02-24T05:19:53.152Z,83.00
2019-02-24T05:22:22.124Z,83.10
2019-02-24T05:24:51.055Z,83.40
2019-02-24T05:27:20.043Z,83.50
2019-02-24T05:29:48.980Z,83.10
2019-02-24T05:32:17.960Z,83.30
2019-02-24T05:34:46.906Z,82.90
2019-02-24T05:37:15.877Z,82.70
2019-02-24T05:39:44.812Z,82.50
2019-02-24T05:42:13.768Z,82.50
2019-02-24T05:44:42.725Z,83.00
2019-02-24T05:47:11.687Z,83.40
2019-02-24T05:49:40.658Z,83.90
2019-02-24T05:52:09.655Z,83.70
2019-02-24T05:54:38.635Z,83.00
2019-02-24T05:57:07.587Z,81.60
2019-02-24T05:59:36.568Z,81.70
2019-02-24T06:02:05.658Z,82.20
2019-02-24T06:04:34.699Z,82.40
2019-02-24T06:07:03.721Z,82.90
2019-02-24T06:09:32.691Z,82.60
2019-02-24T06:12:01.628Z,82.40
2019-02-24T06:14:30.599Z,82.50
2019-02-24T06:16:59.556Z,82.40
2019-02-24T06:19:28.502Z,82.60
2019-02-24T06:21:57.462Z,82.30
2019-02-24T06:24:26.423Z,82.30
2019-02-24T06:26:55.360Z,82.10
2019-02-24T06:29:24.343Z,81.90
2019-02-24T06:31:53.270Z,82.10
2019-02-24T06:34:22.249Z,82.70
2019-02-24T06:36:51.191Z,82.30
2019-02-24T06:39:20.165Z,82.80
2019-02-24T06:41:49.142Z,81.80
2019-02-24T06:44:18.094Z,82.20
2019-02-24T06:46:47.051Z,82.30
2019-02-24T06:49:16.011Z,82.60
2019-02-24T06:51:44.934Z,81.90
2019-02-24T06:54:13.896Z,81.00
2019-02-24T06:56:42.851Z,80.60
2019-02-24T06:59:11.807Z,80.10
2019-02-24T07:01:40.774Z,79.80
2019-02-24T07:04:09.710Z,79.20
2019-02-24T07:06:38.698Z,77.40
2019-02-24T07:09:07.893Z,77.00
2019-02-24T07:11:37.106Z,76.30
2019-02-24T07:14:06.201Z,76.30
2019-02-24T07:16:35.165Z,75.80
2019-02-24T07:19:04.180Z,74.50
2019-02-24T07:21:33.140Z,73.10
2019-02-24T07:24:02.080Z,71.70
2019-02-24T07:26:31.039Z,70.10
2019-02-24T07:28:59.978Z,68.00
2019-02-24T07:31:29.021Z,66.60
2019-02-24T07:33:57.971Z,64.20
2019-02-24T07:36:27.007Z,62.10
2019-02-24T07:38:55.971Z,60.60
2019-02-24T07:41:25.012Z,58.50
2019-02-24T07:43:53.954Z,57.00
2019-02-24T07:46:22.927Z,54.90
2019-02-24T07:48:51.888Z,52.90
2019-02-24T07:51:20.900Z,51.00
2019-02-24T07:53:49.855Z,49.30
2019-02-24T07:56:18.782Z,48.30
2019-02-24T07:58:47.766Z,46.60
2019-02-24T08:01:16.709Z,44.20
2019-02-24T08:03:45.675Z,43.50
2019-02-24T08:06:14.649Z,41.50
2019-02-24T08:08:43.807Z,39.80
2019-02-24T08:11:12.809Z,38.60
2019-02-24T08:13:41.767Z,37.40
2019-02-24T08:16:10.703Z,37.10
2019-02-24T08:18:39.706Z,35.90
2019-02-24T08:21:08.727Z,34.60
2019-02-24T08:23:37.773Z,32.90
2019-02-24T08:26:06.769Z,31.00
2019-02-24T08:28:35.735Z,30.40
2019-02-24T08:31:04.806Z,29.30
2019-02-24T08:33:33.879Z,29.00
2019-02-24T08:36:02.824Z,28.40
2019-02-24T08:38:31.776Z,28.00
2019-02-24T08:41:00.751Z,28.00
2019-02-24T08:43:29.686Z,26.90
2019-02-24T08:45:58.670Z,25.80
2019-02-24T08:48:27.624Z,25.80
2019-02-24T08:50:56.727Z,25.50
2019-02-24T08:53:25.725Z,24.90
2019-02-24T08:55:54.678Z,24.50
2019-02-24T08:58:23.679Z,23.60
2019-02-24T09:00:52.643Z,23.00
2019-02-24T09:03:21.575Z,22.70
2019-02-24T09:05:50.548Z,22.00
2019-02-24T09:08:19.492Z,21.80
2019-02-24T09:10:48.464Z,21.20
2019-02-24T09:13:17.395Z,22.10
2019-02-24T09:15:48.219Z,20.70
2019-02-24T09:18:17.248Z,21.20
2019-02-24T09:20:46.214Z,19.20
2019-02-24T09:23:15.251Z,18.50
2019-02-24T09:25:44.278Z,17.90
2019-02-24T09:28:13.327Z,18.10
2019-02-24T09:30:42.387Z,18.30
2019-02-24T09:33:11.340Z,18.00
2019-02-24T09:35:40.297Z,17.80
2019-02-24T09:38:09.399Z,17.50
2019-02-24T09:40:38.363Z,17.10
2019-02-24T09:43:10.401Z,16.60
2019-02-24T09:45:39.410Z,16.70
2019-02-24T09:48:08.468Z,17.60
2019-02-24T09:50:37.485Z,16.70
2019-02-24T09:53:08.116Z,16.80
2019-02-24T09:55:37.127Z,16.40
2019-02-24T09:58:06.249Z,15.80
2019-02-24T10:00:35.214Z,15.70
2019-02-24T10:03:04.233Z,13.90
2019-02-24T10:05:33.203Z,11.40
2019-02-24T10:08:02.412Z,12.60
2019-02-24T10:10:31.459Z,13.20
2019-02-24T10:13:00.427Z,13.10
2019-02-24T10:15:29.456Z,13.60
2019-02-24T10:17:58.493Z,13.30
2019-02-24T10:20:27.544Z,13.00
2019-02-24T10:22:56.701Z,12.10
2019-02-24T10:25:25.804Z,10.60
2019-02-24T10:27:54.878Z,9.70
2019-02-24T10:30:24.232Z,9.80
2019-02-24T10:32:53.436Z,9.80
2019-02-24T10:35:22.360Z,9.80
2019-02-24T10:37:54.331Z,9.80
2019-02-24T10:40:23.514Z,10.50
2019-02-24T10:42:53.842Z,10.50
2019-02-24T10:45:22.790Z,9.90
2019-02-24T10:47:51.732Z,10.70
2019-02-24T10:50:20.805Z,10.80
2019-02-24T10:52:49.752Z,10.10
2019-02-24T10:55:18.781Z,10.50
2019-02-24T10:57:47.858Z,10.10
2019-02-24T11:00:18.947Z,10.30
2019-02-24T11:02:48.162Z,10.10
2019-02-24T11:05:18.337Z,9.80
2019-02-24T11:07:48.618Z,9.90
2019-02-24T11:10:17.736Z,11.00
2019-02-24T11:12:46.761Z,10.90
2019-02-24T11:15:15.812Z,9.50
2019-02-24T11:17:44.832Z,10.20
2019-02-24T11:20:16.336Z,10.40
2019-02-24T11:22:45.359Z,11.10
2019-02-24T11:25:14.418Z,11.10
2019-02-24T11:27:43.437Z,10.50
2019-02-24T11:30:14.176Z,9.40
2019-02-24T11:32:43.285Z,8.90
2019-02-24T11:35:13.059Z,8.40
2019-02-24T11:37:42.183Z,9.00
2019-02-24T11:40:13.282Z,8.80
2019-02-24T11:42:42.404Z,8.20
2019-02-24T11:45:11.527Z,8.00
2019-02-24T11:47:40.566Z,8.40
2019-02-24T11:50:12.972Z,8.70
2019-02-24T11:52:42.235Z,9.30
2019-02-24T11:55:11.534Z,9.30
2019-02-24T11:57:41.810Z,9.50
2019-02-24T12:00:13.540Z,9.00
2019-02-24T12:02:42.649Z,8.50
2019-02-24T12:05:13.140Z,9.30
2019-02-24T12:07:42.181Z,8.20
2019-02-24T12:10:12.385Z,9.00
2019-02-24T12:12:41.366Z,7.80
2019-02-24T12:15:12.201Z,8.70
2019-02-24T12:17:41.362Z,8.90
2019-02-24T12:20:14.552Z,9.30
2019-02-24T12:22:43.572Z,8.90
2019-02-24T12:25:12.592Z,9.20
2019-02-24T12:27:41.866Z,8.70
2019-02-24T12:30:12.649Z,9.00
2019-02-24T12:32:41.811Z,9.50
2019-02-24T12:35:10.964Z,9.40
2019-02-24T12:37:41.643Z,8.90
2019-02-24T12:40:13.853Z,8.40
2019-02-24T12:42:44.128Z,8.90
2019-02-24T12:45:13.973Z,8.60
2019-02-24T12:47:44.538Z,8.10
2019-02-24T12:50:15.974Z,9.00
2019-02-24T12:52:45.021Z,8.80
2019-02-24T12:55:14.225Z,9.50
2019-02-24T12:57:43.678Z,9.20
2019-02-24T13:00:17.183Z,9.50
2019-02-24T13:02:46.221Z,8.50
2019-02-24T13:05:15.399Z,8.70
2019-02-24T13:07:44.350Z,8.70
2019-02-24T13:10:18.704Z,8.50
2019-02-24T13:12:50.848Z,8.30
2019-02-24T13:15:19.884Z,9.50
2019-02-24T13:17:53.436Z,9.00
2019-02-24T13:20:22.464Z,9.40
2019-02-24T13:22:54.317Z,9.30
2019-02-24T13:25:23.757Z,8.80
2019-02-24T13:27:52.916Z,9.40
2019-02-24T13:30:22.044Z,9.90
2019-02-24T13:32:51.034Z,9.60
2019-02-24T13:35:20.279Z,10.10
2019-02-24T13:37:52.569Z,10.10
2019-02-24T13:40:21.741Z,10.30
2019-02-24T13:42:51.339Z,10.50
2019-02-24T13:45:21.595Z,10.40
2019-02-24T13:47:51.026Z,10.40
2019-02-24T13:50:20.176Z,9.80
2019-02-24T13:52:49.315Z,9.60
2019-02-24T13:55:18.342Z,9.50
2019-02-24T13:57:47.527Z,9.80
2019-02-24T14:00:21.244Z,9.70
2019-02-24T14:02:50.270Z,9.10
2019-02-24T14:05:19.359Z,9.00
2019-02-24T14:07:48.427Z,9.30
2019-02-24T14:10:17.527Z,10.00
2019-02-24T14:12:46.719Z,9.40
2019-02-24T14:15:16.295Z,9.20
2019-02-24T14:17:51.396Z,9.30
2019-02-24T14:20:20.390Z,9.20
2019-02-24T14:22:49.423Z,10.00
2019-02-24T14:25:18.478Z,9.60
2019-02-24T14:27:47.710Z,9.50
2019-02-24T14:30:17.870Z,9.60
2019-02-24T14:32:46.975Z,9.50
2019-02-24T14:35:23.191Z,9.50
2019-02-24T14:37:52.325Z,9.80
2019-02-24T14:40:21.419Z,9.60
2019-02-24T14:42:50.547Z,10.00
2019-02-24T14:45:23.862Z,10.10
2019-02-24T14:47:53.014Z,10.80
2019-02-24T14:50:22.372Z,9.30
2019-02-24T14:52:51.454Z,9.20
2019-02-24T14:55:20.513Z,9.30
2019-02-24T14:57:49.519Z,9.90
2019-02-24T15:00:20.438Z,9.40
2019-02-24T15:02:49.493Z,9.70
2019-02-24T15:05:18.813Z,9.90
2019-02-24T15:07:48.047Z,10.20
2019-02-24T15:10:18.651Z,10.30
2019-02-24T15:12:49.037Z,9.60
2019-02-24T15:15:32.413Z,10.10
2019-02-24T15:17:56.661Z,10.60
2019-02-24T15:20:25.506Z,10.70
2019-02-24T15:22:56.334Z,10.50
2019-02-24T15:25:25.325Z,10.50
2019-02-24T15:27:54.403Z,10.20
2019-02-24T15:30:26.795Z,10.50
2019-02-24T15:32:55.929Z,11.30
2019-02-24T15:35:24.921Z,11.30
2019-02-24T15:37:54.041Z,11.20
2019-02-24T15:40:23.474Z,11.70
2019-02-24T15:42:52.613Z,12.00
2019-02-24T15:45:21.730Z,12.30
2019-02-24T15:47:50.922Z,12.00
2019-02-24T15:50:20.041Z,12.10
2019-02-24T15:52:49.183Z,12.40
2019-02-24T15:55:18.614Z,12.80
2019-02-24T15:57:47.565Z,13.20
2019-02-24T16:00:24.084Z,13.40
2019-02-24T16:03:01.018Z,13.40
2019-02-24T16:05:23.904Z,13.80
2019-02-24T16:07:52.944Z,13.90
2019-02-24T16:10:22.732Z,13.80
2019-02-24T16:12:51.865Z,14.00
2019-02-24T16:15:25.904Z,14.10
2019-02-24T16:17:54.962Z,14.60
2019-02-24T16:20:34.919Z,14.70
2019-02-24T16:23:04.143Z,15.30
2019-02-24T16:25:33.244Z,16.20
2019-02-24T16:28:02.411Z,17.50
2019-02-24T16:30:31.440Z,18.50
2019-02-24T16:32:58.343Z,19.80
2019-02-24T16:35:24.641Z,20.40
2019-02-24T16:37:51.219Z,21.30
2019-02-24T16:40:23.121Z,24.20
2019-02-24T16:42:49.378Z,26.00
2019-02-24T16:45:15.784Z,26.80
2019-02-24T16:47:42.140Z,26.80
2019-02-24T16:50:10.815Z,28.00
2019-02-24T16:52:37.608Z,29.10
2019-02-24T16:55:07.156Z,29.00
2019-02-24T16:57:33.512Z,29.90
2019-02-24T17:00:00.211Z,30.70
2019-02-24T17:02:26.628Z,31.70
2019-02-24T17:04:52.862Z,31.90
2019-02-24T17:07:19.200Z,32.70
2019-02-24T17:09:45.699Z,33.90
2019-02-24T17:12:11.969Z,34.80
2019-02-24T17:17:33.156Z,34.70
2019-02-24T17:19:59.504Z,34.50
2019-02-24T17:22:25.756Z,34.50
2019-02-24T17:24:52.239Z,35.00
2019-02-24T19:00:56.993Z,49.00
2019-02-24T19:03:23.335Z,49.30
2019-02-24T19:05:50.896Z,50.10
2019-02-24T19:08:17.287Z,50.40
2019-02-24T19:10:43.751Z,50.60
2019-02-24T19:13:10.082Z,51.30
2019-02-24T19:15:36.531Z,51.50
2019-02-24T19:18:04.915Z,51.80
2019-02-24T19:20:31.547Z,51.90
2019-02-24T19:22:57.825Z,52.50
2019-02-24T19:25:24.241Z,53.00
2019-02-24T19:27:50.486Z,53.40
2019-02-24T19:30:18.983Z,53.30
2019-02-24T19:32:45.433Z,53.70
2019-02-24T19:35:13.199Z,54.30
2019-02-24T19:37:39.667Z,54.50
2019-02-24T19:40:11.178Z,54.60
2019-02-24T19:42:37.326Z,54.90
2019-02-24T19:45:06.735Z,55.10
2019-02-24T19:47:33.283Z,55.40
2019-02-24T19:49:59.561Z,54.90
2019-02-24T19:52:25.923Z,54.70
2019-02-24T19:54:52.467Z,54.90
2019-02-24T19:57:18.792Z,54.10
2019-02-24T19:59:45.190Z,54.20
2019-02-24T20:02:11.551Z,54.30
2019-02-24T20:04:38.180Z,54.40
2019-02-24T20:07:04.441Z,54.50
2019-02-24T20:09:30.885Z,55.00
2019-02-24T20:11:57.213Z,55.00
2019-02-24T20:14:23.679Z,54.90
2019-02-24T20:16:50.072Z,54.80
2019-02-24T20:19:16.314Z,54.60
2019-02-24T20:21:42.599Z,54.90
2019-02-24T20:24:09.085Z,55.40
2019-02-24T20:26:35.303Z,55.00
2019-02-24T20:29:01.673Z,54.60
2019-02-24T20:31:28.222Z,55.60
2019-02-24T20:33:54.706Z,55.40
2019-02-24T20:36:21.100Z,55.50
2019-02-24T20:38:47.423Z,56.10
2019-02-24T20:41:13.616Z,56.10
2019-02-24T20:43:39.802Z,55.90
2019-02-24T20:46:06.050Z,55.40
2019-02-24T20:48:32.495Z,55.70
2019-02-24T20:50:58.734Z,55.80
2019-02-24T20:53:25.100Z,55.20
2019-02-24T20:55:51.336Z,54.90
2019-02-24T20:58:20.340Z,54.90
2019-02-24T21:00:52.864Z,55.40
2019-02-24T21:03:19.111Z,56.00
2019-02-24T21:05:45.230Z,56.90
2019-02-24T21:08:11.423Z,57.30
2019-02-24T21:10:37.756Z,56.90
2019-02-24T21:13:04.113Z,56.90
2019-02-24T21:15:30.322Z,57.20
2019-02-24T21:17:58.500Z,57.50
2019-02-24T21:20:29.165Z,57.90
2019-02-24T21:22:57.351Z,58.40
2019-02-24T21:25:23.708Z,58.50
2019-02-24T21:27:50.000Z,59.40
2019-02-24T21:30:17.048Z,60.00
2019-02-24T21:32:43.491Z,60.80
2019-02-24T21:35:10.430Z,61.60
2019-02-24T21:37:36.667Z,61.50
2019-02-24T21:40:06.063Z,62.00
2019-02-24T21:42:32.392Z,62.60
2019-02-24T21:44:58.542Z,62.70
2019-02-24T21:47:24.693Z,61.40
2019-02-24T21:49:51.027Z,61.60
2019-02-24T21:52:17.172Z,61.10
2019-02-24T21:54:43.303Z,61.00
2019-02-24T21:57:09.551Z,60.80
2019-02-24T21:59:37.187Z,61.10
2019-02-24T22:02:03.540Z,61.10
2019-02-24T22:04:29.835Z,61.40
2019-02-24T22:06:56.098Z,61.50
2019-02-24T22:09:22.401Z,61.40
2019-02-24T22:11:48.526Z,61.00
2019-02-24T22:14:14.779Z,62.00
2019-02-24T22:16:40.896Z,62.60
2019-02-24T22:19:07.132Z,62.70
2019-02-24T22:21:33.383Z,62.60
2019-02-24T22:23:59.625Z,62.40
2019-02-24T22:26:25.995Z,63.30
2019-02-24T22:28:52.236Z,63.80
2019-02-24T22:31:18.503Z,63.40
2019-02-24T22:33:44.809Z,62.90
2019-02-24T22:36:11.079Z,61.00
2019-02-24T22:38:37.280Z,61.10
2019-02-24T22:41:03.523Z,61.30
2019-02-24T22:43:29.622Z,60.80
2019-02-24T22:45:55.987Z,60.70
2019-02-24T22:48:22.194Z,61.10
2019-02-24T22:50:49.299Z,60.90
2019-02-24T22:53:15.543Z,60.40
2019-02-24T22:55:41.768Z,60.90
2019-02-24T22:58:10.584Z,61.30
2019-02-24T23:00:51.467Z,62.10
2019-02-24T23:03:17.709Z,62.50
2019-02-24T23:05:43.857Z,62.70
2019-02-24T23:08:10.091Z,62.60
2019-02-24T23:10:36.315Z,62.70
2019-02-24T23:13:02.751Z,62.50
2019-02-24T23:15:31.862Z,63.00
2019-02-24T23:17:58.178Z,63.30
2019-02-24T23:20:24.548Z,63.40
2019-02-24T23:22:50.683Z,63.40
2019-02-24T23:25:18.875Z,63.60
2019-02-24T23:27:45.264Z,62.60
2019-02-24T23:30:19.112Z,63.30
2019-02-24T23:32:47.312Z,63.70
2019-02-24T23:35:13.531Z,64.20
2019-02-24T23:37:39.735Z,64.00
2019-02-24T23:40:08.950Z,64.30
2019-02-24T23:42:35.174Z,64.40
2019-02-24T23:45:09.826Z,64.50
2019-02-24T23:47:29.573Z,64.60
2019-02-24T23:49:55.757Z,65.30
2019-02-24T23:52:21.871Z,66.00
2019-02-24T23:54:48.042Z,66.10
2019-02-24T23:57:14.365Z,65.50
2019-02-24T23:59:40.519Z,65.70
